createdAt,value
2019-04-05T00:00:01.599Z,5.80
2019-04-05T00:05:04.688Z,5.85
2019-04-05T00:10:07.591Z,5.80
2019-04-05T00:15:15.564Z,5.79
2019-04-05T00:20:14.569Z,5.76
2019-04-05T00:25:16.614Z,5.75
2019-04-05T00:30:18.816Z,5.61
2019-04-05T00:35:20.827Z,5.67
2019-04-05T00:40:22.965Z,5.70
2019-04-05T00:45:28.419Z,5.76
2019-04-05T00:50:29.030Z,5.88
2019-04-05T00:55:31.117Z,5.92
2019-04-05T01:00:33.409Z,5.89
2019-04-05T01:05:35.679Z,5.75
2019-04-05T01:10:38.066Z,5.71
2019-04-05T01:15:41.354Z,5.86
2019-04-05T01:20:47.159Z,5.83
2019-04-05T01:25:52.826Z,5.81
2019-04-05T01:30:55.006Z,5.88
2019-04-05T01:35:57.087Z,5.68
2019-04-05T01:40:59.528Z,5.83
2019-04-05T01:46:01.600Z,5.87
2019-04-05T01:51:04.448Z,5.79
2019-04-05T01:56:06.510Z,5.77
2019-04-05T02:01:08.625Z,5.82
2019-04-05T02:06:10.798Z,5.78
2019-04-05T02:11:12.980Z,5.76
2019-04-05T02:16:15.095Z,5.74
2019-04-05T02:21:17.270Z,5.81
2019-04-05T02:26:19.346Z,5.86
2019-04-05T02:31:21.600Z,5.80
2019-04-05T02:36:23.806Z,5.86
2019-04-05T02:41:26.609Z,5.75
2019-04-05T02:46:31.799Z,5.79
2019-04-05T02:51:36.740Z,5.69
2019-04-05T02:56:39.406Z,5.80
2019-04-05T03:01:42.214Z,5.76
2019-04-05T03:06:45.039Z,5.81
2019-04-05T03:11:48.077Z,5.84
2019-04-05T03:16:53.807Z,5.78
2019-04-05T03:22:04.454Z,5.90
2019-04-05T03:27:15.660Z,5.85
2019-04-05T03:32:18.424Z,5.82
2019-04-05T03:37:21.176Z,5.89
2019-04-05T03:42:23.714Z,5.90
2019-04-05T03:47:25.930Z,5.92
2019-04-05T03:52:28.040Z,5.89
2019-04-05T03:57:30.031Z,5.91
2019-04-05T04:02:32.231Z,5.93
2019-04-05T04:07:34.623Z,5.96
2019-04-05T04:12:36.764Z,5.90
2019-04-05T04:17:39.032Z,5.82
2019-04-05T04:22:41.196Z,5.78
2019-04-05T04:27:43.757Z,5.80
2019-04-05T04:32:46.261Z,5.81
2019-04-05T04:37:48.420Z,5.77
2019-04-05T04:42:50.794Z,5.84
2019-04-05T04:47:53.517Z,5.80
2019-04-05T04:52:56.702Z,5.95
2019-04-05T04:57:58.702Z,5.92
2019-04-05T05:03:01.030Z,5.91
2019-04-05T05:08:03.938Z,5.95
2019-04-05T05:13:06.317Z,5.96
2019-04-05T05:18:08.663Z,5.99
2019-04-05T05:23:11.093Z,5.96
2019-04-05T05:28:13.384Z,6.01
2019-04-05T05:33:15.457Z,6.02
2019-04-05T05:38:18.900Z,6.11
2019-04-05T05:43:23.682Z,6.05
2019-04-05T05:48:25.312Z,6.10
2019-04-05T05:53:27.544Z,6.16
2019-04-05T05:58:29.651Z,6.22
2019-04-05T06:03:31.711Z,6.11
2019-04-05T06:08:33.772Z,6.14
2019-04-05T06:13:35.863Z,6.05
2019-04-05T06:18:37.914Z,6.13
2019-04-05T06:23:40.486Z,6.11
2019-04-05T06:28:42.688Z,6.06
2019-04-05T06:33:44.786Z,6.17
2019-04-05T06:38:46.862Z,6.17
2019-04-05T06:43:48.913Z,6.26
2019-04-05T06:48:51.051Z,6.17
2019-04-05T06:53:53.093Z,6.19
2019-04-05T06:58:55.138Z,6.14
2019-04-05T07:03:57.228Z,6.01
2019-04-05T07:08:59.289Z,6.39
2019-04-05T07:14:01.364Z,6.31
2019-04-05T07:19:03.532Z,6.19
2019-04-05T07:24:05.950Z,6.29
2019-04-05T07:29:08.003Z,6.43
2019-04-05T07:34:10.034Z,6.36
2019-04-05T07:39:12.142Z,6.35
2019-04-05T07:44:14.122Z,6.25
2019-04-05T07:49:16.157Z,6.15
2019-04-05T07:54:18.224Z,6.25
2019-04-05T07:59:21.134Z,6.46
2019-04-05T08:04:23.346Z,6.53
2019-04-05T08:09:26.236Z,6.50
2019-04-05T08:14:28.300Z,6.52
2019-04-05T08:19:30.316Z,6.65
2019-04-05T08:24:32.367Z,6.70
2019-04-05T08:29:34.427Z,6.74
2019-04-05T08:34:36.453Z,6.59
2019-04-05T08:39:38.525Z,6.65
2019-04-05T08:44:40.636Z,6.81
2019-04-05T08:49:42.783Z,6.87
2019-04-05T08:54:44.902Z,6.93
2019-04-05T08:59:47.031Z,6.95
2019-04-05T09:04:49.172Z,6.98
2019-04-05T09:09:51.264Z,6.85
2019-04-05T09:14:53.567Z,7.01
2019-04-05T09:19:55.677Z,7.07
2019-04-05T09:24:57.775Z,7.15
2019-04-05T09:29:59.853Z,7.10
2019-04-05T09:35:02.005Z,7.25
2019-04-05T09:40:04.645Z,7.39
2019-04-05T09:45:07.197Z,7.23
2019-04-05T09:50:09.444Z,7.27
2019-04-05T09:55:11.484Z,7.39
2019-04-05T10:00:19.627Z,7.45
2019-04-05T10:05:21.709Z,7.57
2019-04-05T10:10:24.034Z,7.52
2019-04-05T10:15:26.129Z,7.79
2019-04-05T10:20:28.125Z,7.59
2019-04-05T10:25:30.175Z,7.63
2019-04-05T10:30:32.696Z,7.75
2019-04-05T10:35:34.767Z,7.91
2019-04-05T10:40:36.816Z,7.98
2019-04-05T10:45:39.026Z,8.10
2019-04-05T10:50:41.127Z,7.96
2019-04-05T10:55:43.199Z,7.84
2019-04-05T11:00:45.281Z,7.91
2019-04-05T11:05:49.315Z,7.91
2019-04-05T11:10:51.358Z,7.96
2019-04-05T11:15:53.580Z,7.96
2019-04-05T11:20:56.046Z,7.79
2019-04-05T11:25:58.125Z,7.97
2019-04-05T11:31:00.566Z,7.86
2019-04-05T11:36:02.828Z,7.84
2019-04-05T11:41:05.401Z,7.96
2019-04-05T11:46:07.459Z,7.92
2019-04-05T11:51:09.767Z,8.13
2019-04-05T11:56:14.976Z,8.18
2019-04-05T12:01:23.711Z,8.18
2019-04-05T12:06:26.082Z,8.01
2019-04-05T12:11:28.212Z,8.01
2019-04-05T12:16:30.288Z,8.14
2019-04-05T12:21:32.554Z,8.20
2019-04-05T12:26:36.292Z,8.13
2019-04-05T12:31:38.355Z,8.13
2019-04-05T12:36:40.530Z,8.19
2019-04-05T12:41:44.900Z,8.05
2019-04-05T12:46:46.837Z,8.19
2019-04-05T12:51:48.908Z,8.25
2019-04-05T12:56:53.950Z,8.25
2019-04-05T13:01:54.973Z,8.22
2019-04-05T13:06:57.071Z,8.22
2019-04-05T13:11:59.185Z,8.22
2019-04-05T13:17:02.609Z,8.37
2019-04-05T13:22:04.998Z,8.37
2019-04-05T13:27:07.056Z,8.38
2019-04-05T13:32:09.083Z,8.31
2019-04-05T13:37:20.123Z,8.31
2019-04-05T13:42:15.247Z,8.34
2019-04-05T13:47:17.337Z,8.45
2019-04-05T13:52:19.380Z,8.36
2019-04-05T13:57:21.505Z,8.36
2019-04-05T14:02:24.660Z,8.42
2019-04-05T14:07:26.774Z,8.42
2019-04-05T14:12:31.204Z,8.35
2019-04-05T14:17:32.845Z,8.35
2019-04-05T14:22:34.912Z,8.22
2019-04-05T14:27:37.313Z,8.38
2019-04-05T14:32:39.451Z,8.38
2019-04-05T14:37:41.513Z,8.36
2019-04-05T14:42:44.980Z,8.39
2019-04-05T14:47:47.522Z,8.33
2019-04-05T14:52:49.890Z,8.50
2019-04-05T14:57:52.050Z,8.50
2019-04-05T15:02:54.115Z,8.44
2019-04-05T15:07:56.254Z,8.44
2019-04-05T15:13:00.279Z,8.44
2019-04-05T15:18:02.336Z,8.44
2019-04-05T15:23:05.018Z,8.54
2019-04-05T15:28:07.081Z,8.52
2019-04-05T15:33:09.238Z,8.55
2019-04-05T15:38:11.401Z,8.48
2019-04-05T15:43:13.531Z,8.53
2019-04-05T15:48:15.686Z,8.51
2019-04-05T15:53:17.793Z,8.50
2019-04-05T15:58:19.935Z,8.50
2019-04-05T16:03:21.964Z,8.51
2019-04-05T16:08:24.142Z,8.49
2019-04-05T16:13:26.280Z,8.50
2019-04-05T16:18:28.339Z,8.47
2019-04-05T16:23:30.379Z,8.46
2019-04-05T16:28:32.390Z,8.44
2019-04-05T16:33:34.853Z,8.42
2019-04-05T16:38:36.913Z,8.42
2019-04-05T16:43:38.982Z,8.39
2019-04-05T16:48:40.990Z,8.30
2019-04-05T16:53:59.496Z,8.29
2019-04-05T16:59:01.522Z,8.32
2019-04-05T17:04:03.696Z,8.25
2019-04-05T17:09:07.775Z,8.30
2019-04-05T17:14:09.872Z,8.32
2019-04-05T17:19:12.013Z,8.29
2019-04-05T17:24:14.083Z,8.17
2019-04-05T17:29:16.210Z,8.17
2019-04-05T17:34:19.214Z,8.11
2019-04-05T17:39:21.297Z,8.11
2019-04-05T17:44:23.333Z,8.10
2019-04-05T17:49:25.390Z,7.99
2019-04-05T17:54:27.408Z,7.98
2019-04-05T17:59:29.858Z,7.96
2019-04-05T18:04:31.976Z,8.00
2019-04-05T18:09:34.453Z,7.97
2019-04-05T18:14:36.557Z,7.93
2019-04-05T18:19:38.559Z,7.90
2019-04-05T18:24:40.673Z,7.86
2019-04-05T18:29:42.724Z,7.88
2019-04-05T18:34:44.924Z,7.92
2019-04-05T18:39:47.074Z,7.85
2019-04-05T18:44:49.210Z,7.84
2019-04-05T18:50:02.397Z,7.81
2019-04-05T18:54:55.281Z,7.71
2019-04-05T18:59:57.355Z,7.75
2019-04-05T19:04:59.464Z,7.84
2019-04-05T19:10:01.798Z,7.76
2019-04-05T19:15:04.466Z,7.73
2019-04-05T19:20:06.894Z,7.79
2019-04-05T19:25:09.568Z,7.79
2019-04-05T19:50:27.792Z,7.83
2019-04-05T19:55:29.805Z,7.77
2019-04-05T20:00:31.873Z,7.83
2019-04-05T20:05:33.934Z,7.85
2019-04-05T20:10:36.031Z,7.87
2019-04-05T20:15:38.070Z,7.84
2019-04-05T20:20:40.581Z,7.87
2019-04-05T20:25:42.587Z,7.87
2019-04-05T20:30:44.608Z,7.89
2019-04-05T20:35:46.703Z,7.87
2019-04-05T20:40:48.796Z,7.83
2019-04-05T20:45:50.847Z,7.85
2019-04-05T20:50:52.959Z,7.87
2019-04-05T20:55:55.003Z,7.87
2019-04-05T21:00:59.281Z,7.89
2019-04-05T21:06:01.054Z,7.89
2019-04-05T21:11:03.418Z,7.92
2019-04-05T21:16:05.489Z,7.87
2019-04-05T21:21:07.543Z,7.89
2019-04-05T21:26:09.858Z,7.92
2019-04-05T21:31:11.927Z,7.91
2019-04-05T21:36:13.974Z,7.88
2019-04-05T21:41:16.409Z,7.89
2019-04-05T21:46:18.485Z,7.91
2019-04-05T21:51:20.503Z,7.88
2019-04-05T21:56:22.533Z,7.88
2019-04-05T22:01:26.309Z,7.86
2019-04-05T22:06:28.360Z,7.90
2019-04-05T22:11:30.458Z,7.91
2019-04-05T22:16:32.486Z,7.89
2019-04-05T22:21:34.540Z,7.92
2019-04-05T22:26:36.678Z,7.93
2019-04-05T22:31:38.709Z,7.90
2019-04-05T22:36:40.833Z,7.89
2019-04-05T22:41:42.914Z,7.90
2019-04-05T22:46:44.977Z,7.88
2019-04-05T22:51:47.038Z,7.89
2019-04-05T22:56:49.075Z,7.89
2019-04-05T23:01:51.235Z,7.91
2019-04-05T23:06:53.248Z,7.94
2019-04-05T23:11:55.314Z,7.97
2019-04-05T23:16:57.415Z,7.97
2019-04-05T23:22:00.933Z,7.97
2019-04-05T23:27:03.298Z,7.98
2019-04-05T23:32:05.573Z,7.99
2019-04-05T23:37:07.671Z,8.02
2019-04-05T23:42:09.752Z,8.01
2019-04-05T23:47:12.081Z,8.01
2019-04-05T23:52:14.157Z,8.02
2019-04-05T23:57:16.198Z,8.01
